This is the latest recevied weather packets stored in our database for station/object VE3GIF. If no packets are shown the sender has not sent any weather packets the latest 1 day(s).
| Time | Temp. | Humidity | Pressure | Rain* | Wind** | Luminosity | Snow |
|---|---|---|---|---|---|---|---|
| 1778022131 | 11.11° C | 68% | 1006.7 hPa | 0 mm | 0.89 m/s, 313° | - | - |
| 1778021830 | 11.11° C | 68% | 1006.8 hPa | 0 mm | 0.89 m/s, 340° | - | - |
| 1778021530 | 11.11° C | 68% | 1006.8 hPa | 0 mm | 0.89 m/s, 294° | - | - |
| 1778021230 | 11.11° C | 69% | 1006.8 hPa | 0 mm | 1.34 m/s, 312° | - | - |
| 1778020930 | 11.11° C | 69% | 1006.7 hPa | 0 mm | 1.34 m/s, 304° | - | - |
| 1778020629 | 11.11° C | 69% | 1006.8 hPa | 0 mm | 1.34 m/s, 298° | - | - |
| 1778020329 | 11.11° C | 70% | 1006.8 hPa | 0 mm | 0.89 m/s, 296° | - | - |
| 1778020029 | 11.11° C | 71% | 1006.9 hPa | 0 mm | 1.34 m/s, 304° | - | - |
| 1778019728 | 11.11° C | 73% | 1006.8 hPa | 0 mm | 0.89 m/s, 292° | - | - |
| 1778019428 | 11.11° C | 73% | 1006.7 hPa | 0 mm | 2.24 m/s, 189° | - | - |
| 1778019128 | 11.11° C | 74% | 1006.5 hPa | 0 mm | 0.89 m/s, 306° | - | - |
| 1778018828 | 10.56° C | 76% | 1006.6 hPa | 0 mm | 1.34 m/s, 261° | - | - |
| 1778018527 | 10.56° C | 77% | 1006.5 hPa | 0 mm | 1.79 m/s, 299° | - | - |
| 1778018227 | 10.56° C | 79% | 1006.4 hPa | 0 mm | 1.79 m/s, 290° | - | - |
| 1778017927 | 10.56° C | 80% | 1006.4 hPa | 0 mm | 1.79 m/s, 284° | - | - |
| 1778017626 | 10.56° C | 81% | 1006.3 hPa | 0 mm | 0.89 m/s, 337° | - | - |
| 1778017326 | 10.56° C | 81% | 1006.4 hPa | 0 mm | 1.79 m/s, 294° | - | - |
| 1778016726 | 10.56° C | 82% | 1006.4 hPa | 0 mm | 0.89 m/s, 301° | - | - |
| 1778016425 | 10.56° C | 82% | 1006.4 hPa | 0 mm | 0.89 m/s, 299° | - | - |
| 1778016125 | 10° C | 81% | 1006.2 hPa | 0 mm | 1.34 m/s, 284° | - | - |
| 1778015825 | 10° C | 81% | 1006.3 hPa | 0 mm | 0.45 m/s, 328° | - | - |
| 1778015524 | 10° C | 81% | 1006.2 hPa | 0 mm | 0.45 m/s, 284° | - | - |
| 1778015224 | 10° C | 81% | 1006.3 hPa | 0 mm | 0.89 m/s, 281° | - | - |
| 1778014924 | 10° C | 81% | 1006.3 hPa | 0 mm | 0.45 m/s, 295° | - | - |
| 1778014323 | 10° C | 80% | 1006.2 hPa | 0 mm | 0.89 m/s, 5° | - | - |
* Rain latest hour (hover to see other rain measurements)
** Current wind speed in m/s (hover to see current wind gust speed)